Time;durP1;ratioP1;P1;durP2;ratioP2;P2;SDS_P1;SDS_P2;PMS_P1;PMS_P2;Temp;Humidity;BMP_temperature;BMP_pressure;BME280_temperature;BME280_humidity;BME280_pressure;Samples;Min_cycle;Max_cycle;Signal;HPM_P1;HPM_P2
2021/05/31 00:00:48;;;;;;;;;;;10.50;82.00;;;;;;5075213;28;19916;-70
2021/05/31 00:03:14;;;;;;;;;;;10.50;82.10;;;;;;5093010;28;19961;-69
2021/05/31 00:05:39;;;;;;;;;;;10.50;82.20;;;;;;5093329;28;19927;-69
2021/05/31 00:08:06;;;;;;;;;;;10.40;82.30;;;;;;5092135;28;20341;-69
2021/05/31 00:10:31;;;;;;;;;;;10.40;82.50;;;;;;5092801;28;19923;-69
2021/05/31 00:12:57;;;;;;;;;;;10.30;82.70;;;;;;5092838;28;20461;-69
2021/05/31 00:15:23;;;;;;;;;;;10.30;82.80;;;;;;5091357;28;19935;-70
2021/05/31 00:17:49;;;;;;;;;;;10.30;83.00;;;;;;5092890;28;20003;-69
2021/05/31 00:20:16;;;;;;;;;;;10.30;83.10;;;;;;5093146;28;20299;-69
2021/05/31 00:22:41;;;;;;;;;;;10.30;83.20;;;;;;5092692;28;19919;-68
2021/05/31 00:25:08;;;;;;;;;;;10.20;83.20;;;;;;5073842;28;20284;-69
2021/05/31 00:27:35;;;;;;;;;;;10.20;83.30;;;;;;5092927;28;20345;-70
2021/05/31 00:30:02;;;;;;;;;;;10.20;83.50;;;;;;5091030;28;19973;-70
2021/05/31 00:32:27;;;;;;;;;;;10.10;83.60;;;;;;5091695;28;19923;-70
2021/05/31 00:34:53;;;;;;;;;;;10.10;83.80;;;;;;5092220;28;19916;-69
2021/05/31 00:37:18;;;;;;;;;;;10.10;83.80;;;;;;5092978;28;19916;-69
2021/05/31 00:39:44;;;;;;;;;;;10.00;83.90;;;;;;5092851;28;19916;-70
2021/05/31 00:42:10;;;;;;;;;;;10.00;84.00;;;;;;5092246;28;20265;-69
2021/05/31 00:44:35;;;;;;;;;;;10.00;84.20;;;;;;5092624;28;20299;-70
2021/05/31 00:47:01;;;;;;;;;;;10.00;84.30;;;;;;5092697;28;19927;-70
2021/05/31 00:49:28;;;;;;;;;;;9.90;84.40;;;;;;5092042;28;20386;-70
2021/05/31 00:51:54;;;;;;;;;;;9.80;84.50;;;;;;5092539;28;19939;-70
2021/05/31 00:54:20;;;;;;;;;;;9.80;84.60;;;;;;5091778;28;19916;-69
2021/05/31 00:56:46;;;;;;;;;;;9.80;84.70;;;;;;5091006;28;19916;-70
2021/05/31 00:59:13;;;;;;;;;;;9.80;84.90;;;;;;5092216;28;19916;-68
2021/05/31 01:01:39;;;;;;;;;;;9.70;84.90;;;;;;5092110;28;19916;-68
2021/05/31 01:04:05;;;;;;;;;;;9.70;85.10;;;;;;5090467;28;19920;-68
2021/05/31 01:06:32;;;;;;;;;;;9.70;85.20;;;;;;5091671;28;19935;-68
2021/05/31 01:09:05;;;;;;;;;;;9.60;85.20;;;;;;5092333;28;19939;-69
2021/05/31 01:11:55;;;;;;;;;;;9.60;85.30;;;;;;5092226;28;19920;-69
2021/05/31 01:14:24;;;;;;;;;;;9.60;85.40;;;;;;5091738;28;20360;-68
2021/05/31 01:16:58;;;;;;;;;;;9.50;85.50;;;;;;5092188;28;19916;-68
2021/05/31 01:19:45;;;;;;;;;;;9.50;85.60;;;;;;5091914;28;19943;-69
2021/05/31 01:22:12;;;;;;;;;;;9.40;85.60;;;;;;5091926;28;20374;-67
2021/05/31 01:24:46;;;;;;;;;;;9.40;85.80;;;;;;5091639;28;19920;-68
2021/05/31 01:27:15;;;;;;;;;;;9.40;85.90;;;;;;5091591;28;19920;-68
2021/05/31 01:29:43;;;;;;;;;;;9.30;85.90;;;;;;5090737;28;19916;-68
2021/05/31 01:32:12;;;;;;;;;;;9.30;85.90;;;;;;5093237;28;19920;-68
2021/05/31 01:34:40;;;;;;;;;;;9.20;85.90;;;;;;5093031;28;19927;-68
2021/05/31 01:37:11;;;;;;;;;;;9.20;86.00;;;;;;5092506;28;20326;-68
2021/05/31 01:39:38;;;;;;;;;;;9.20;86.20;;;;;;5091953;28;19965;-66
2021/05/31 01:42:05;;;;;;;;;;;9.20;86.30;;;;;;5092798;28;20419;-68
2021/05/31 01:44:30;;;;;;;;;;;9.20;86.40;;;;;;5091681;28;19920;-69
2021/05/31 01:46:56;;;;;;;;;;;9.10;86.50;;;;;;5093781;28;20272;-68
2021/05/31 01:49:22;;;;;;;;;;;9.10;86.50;;;;;;5091931;28;19924;-68
2021/05/31 01:51:48;;;;;;;;;;;9.10;86.70;;;;;;5090726;28;19912;-69
2021/05/31 01:54:14;;;;;;;;;;;9.00;86.70;;;;;;5089444;28;20485;-68
2021/05/31 01:56:41;;;;;;;;;;;9.00;86.80;;;;;;5090674;28;19971;-68
2021/05/31 01:59:07;;;;;;;;;;;9.00;86.80;;;;;;5091303;28;19916;-68
2021/05/31 02:01:33;;;;;;;;;;;9.00;86.90;;;;;;5091884;28;20453;-68
2021/05/31 02:03:59;;;;;;;;;;;8.90;87.00;;;;;;5089424;28;19920;-68
2021/05/31 02:06:24;;;;;;;;;;;8.90;87.10;;;;;;5086161;28;19915;-69
2021/05/31 02:08:50;;;;;;;;;;;8.80;87.20;;;;;;5091492;28;19965;-69
2021/05/31 02:11:28;;;;;;;;;;;8.80;87.30;;;;;;5091513;28;19916;-69
2021/05/31 02:13:58;;;;;;;;;;;8.80;87.50;;;;;;5090928;28;19932;-69
2021/05/31 02:16:25;;;;;;;;;;;8.80;87.50;;;;;;5090220;28;20360;-69
2021/05/31 02:18:52;;;;;;;;;;;8.70;87.40;;;;;;5089687;28;19923;-69
2021/05/31 02:21:19;;;;;;;;;;;8.70;87.40;;;;;;5090326;28;19927;-69
2021/05/31 02:23:46;;;;;;;;;;;8.60;87.40;;;;;;5088963;28;19993;-68
2021/05/31 02:26:16;;;;;;;;;;;8.60;87.60;;;;;;5091390;28;19954;-69
2021/05/31 02:28:41;;;;;;;;;;;8.60;87.80;;;;;;5091439;28;20268;-69
2021/05/31 02:31:07;;;;;;;;;;;8.50;87.60;;;;;;5089738;28;19923;-68
2021/05/31 02:33:33;;;;;;;;;;;8.50;87.70;;;;;;5090770;28;19916;-69
2021/05/31 02:35:59;;;;;;;;;;;8.50;87.90;;;;;;5092406;28;19916;-69
2021/05/31 02:38:24;;;;;;;;;;;8.50;88.00;;;;;;5073099;28;20386;-69
2021/05/31 02:40:50;;;;;;;;;;;8.50;87.90;;;;;;5090137;28;19920;-68
2021/05/31 02:43:15;;;;;;;;;;;8.40;87.90;;;;;;5088962;28;19916;-68
2021/05/31 02:45:41;;;;;;;;;;;8.40;88.10;;;;;;5091200;28;19923;-68
2021/05/31 02:48:07;;;;;;;;;;;8.50;88.30;;;;;;5092290;28;20009;-68
2021/05/31 02:50:33;;;;;;;;;;;8.40;88.20;;;;;;5118041;22;19931;-72
2021/05/31 02:52:59;;;;;;;;;;;8.50;88.40;;;;;;5093188;28;19955;-72
2021/05/31 02:55:25;;;;;;;;;;;8.40;88.50;;;;;;5094222;28;19946;-71
2021/05/31 02:57:51;;;;;;;;;;;8.50;88.50;;;;;;5094457;28;19994;-72
2021/05/31 03:00:18;;;;;;;;;;;8.50;88.40;;;;;;5078034;28;20019;-72
2021/05/31 03:02:44;;;;;;;;;;;8.50;88.40;;;;;;5073874;28;20376;-72
2021/05/31 03:05:11;;;;;;;;;;;8.40;88.40;;;;;;5074033;28;19930;-71
2021/05/31 03:07:37;;;;;;;;;;;8.50;88.50;;;;;;5072616;28;20342;-72
2021/05/31 03:10:04;;;;;;;;;;;8.40;88.40;;;;;;5072802;28;19940;-72
2021/05/31 03:12:29;;;;;;;;;;;8.40;88.40;;;;;;5074385;28;20399;-72
2021/05/31 03:14:55;;;;;;;;;;;8.40;88.50;;;;;;5073197;28;19917;-71
2021/05/31 03:17:20;;;;;;;;;;;8.40;88.50;;;;;;5074186;28;19916;-72
2021/05/31 03:19:46;;;;;;;;;;;8.40;88.60;;;;;;5074066;28;20305;-72
2021/05/31 03:22:12;;;;;;;;;;;8.40;88.70;;;;;;5073712;28;19921;-72
2021/05/31 03:24:37;;;;;;;;;;;8.40;88.70;;;;;;5071874;28;19921;-73
2021/05/31 03:27:03;;;;;;;;;;;8.40;88.80;;;;;;5072227;28;19947;-72
2021/05/31 03:29:29;;;;;;;;;;;8.30;88.90;;;;;;5073898;28;19942;-71
2021/05/31 03:31:55;;;;;;;;;;;8.30;88.90;;;;;;5055915;28;19978;-72
2021/05/31 03:34:20;;;;;;;;;;;8.40;89.00;;;;;;5071808;28;20453;-71
2021/05/31 03:36:46;;;;;;;;;;;8.40;89.00;;;;;;5073903;28;19917;-72
2021/05/31 03:39:11;;;;;;;;;;;8.40;89.20;;;;;;5073679;28;19943;-72
2021/05/31 03:41:37;;;;;;;;;;;8.40;89.20;;;;;;5072035;28;20391;-72
2021/05/31 03:44:03;;;;;;;;;;;8.40;89.30;;;;;;5072869;28;19974;-72
2021/05/31 03:46:28;;;;;;;;;;;8.50;89.30;;;;;;5055564;28;19917;-72
2021/05/31 03:48:54;;;;;;;;;;;8.50;89.40;;;;;;5073297;28;19973;-72
2021/05/31 03:51:19;;;;;;;;;;;8.50;89.90;;;;;;5073711;28;19921;-73
2021/05/31 03:53:46;;;;;;;;;;;8.60;89.40;;;;;;5072349;28;19916;-72
2021/05/31 03:56:11;;;;;;;;;;;8.60;89.40;;;;;;5073374;28;19912;-72
2021/05/31 03:58:38;;;;;;;;;;;8.70;89.30;;;;;;5071831;28;19974;-72
2021/05/31 04:01:04;;;;;;;;;;;8.70;89.40;;;;;;5072225;28;19965;-72
2021/05/31 04:03:30;;;;;;;;;;;8.70;89.40;;;;;;5072990;28;20348;-71
2021/05/31 04:11:37;;;;;;;;;;;8.80;89.80;;;;;;5066020;28;19917;-71
2021/05/31 04:14:03;;;;;;;;;;;8.90;89.90;;;;;;5061472;28;19967;-72
2021/05/31 04:16:29;;;;;;;;;;;8.90;90.00;;;;;;5061332;28;19951;-73
2021/05/31 04:18:54;;;;;;;;;;;9.00;90.00;;;;;;5073082;28;19924;-73
2021/05/31 04:21:20;;;;;;;;;;;9.10;90.00;;;;;;5070931;28;19939;-71
2021/05/31 04:23:46;;;;;;;;;;;9.20;90.00;;;;;;5072091;28;19924;-72
2021/05/31 04:26:11;;;;;;;;;;;9.20;90.00;;;;;;5071238;28;19916;-72
2021/05/31 04:28:37;;;;;;;;;;;9.30;90.00;;;;;;5070398;28;20003;-71
2021/05/31 04:31:03;;;;;;;;;;;9.40;90.00;;;;;;5072329;28;19931;-71
2021/05/31 04:33:28;;;;;;;;;;;9.40;90.00;;;;;;5071806;28;20379;-72
2021/05/31 04:35:54;;;;;;;;;;;9.50;90.00;;;;;;5072211;28;19920;-72
2021/05/31 04:38:19;;;;;;;;;;;9.60;90.10;;;;;;5071411;28;19928;-72
2021/05/31 04:40:45;;;;;;;;;;;9.70;90.20;;;;;;5072218;28;19916;-73
2021/05/31 04:43:10;;;;;;;;;;;9.80;90.20;;;;;;5071662;28;19916;-72
2021/05/31 04:45:36;;;;;;;;;;;9.90;90.20;;;;;;5072487;28;19920;-72
2021/05/31 04:48:02;;;;;;;;;;;10.00;90.20;;;;;;5071923;28;19970;-72
2021/05/31 04:50:27;;;;;;;;;;;10.10;90.20;;;;;;5087743;28;19924;-73
2021/05/31 04:52:53;;;;;;;;;;;10.20;90.20;;;;;;5071647;28;19996;-73
2021/05/31 04:55:18;;;;;;;;;;;10.30;90.40;;;;;;5071782;28;20453;-72
2021/05/31 04:57:45;;;;;;;;;;;10.50;90.50;;;;;;5054491;28;20003;-71
2021/05/31 05:00:11;;;;;;;;;;;10.60;90.20;;;;;;5070304;28;19928;-73
2021/05/31 05:02:36;;;;;;;;;;;10.70;90.20;;;;;;5066593;28;19921;-73
2021/05/31 05:05:02;;;;;;;;;;;10.90;90.20;;;;;;5052611;28;19994;-71
2021/05/31 05:07:28;;;;;;;;;;;10.90;90.10;;;;;;5068294;28;19934;-73
2021/05/31 05:09:53;;;;;;;;;;;11.10;90.10;;;;;;5055112;28;19917;-73
2021/05/31 05:12:19;;;;;;;;;;;11.20;90.10;;;;;;5051985;28;19916;-73
2021/05/31 05:14:44;;;;;;;;;;;11.40;90.00;;;;;;5053173;28;19917;-72
2021/05/31 05:17:10;;;;;;;;;;;11.50;89.90;;;;;;5051368;28;20174;-72
2021/05/31 05:19:35;;;;;;;;;;;11.70;89.20;;;;;;5050936;28;20007;-73
2021/05/31 05:22:01;;;;;;;;;;;11.90;89.00;;;;;;5051776;28;19988;-73
2021/05/31 05:24:27;;;;;;;;;;;12.00;88.60;;;;;;5052811;28;20007;-73
2021/05/31 05:26:53;;;;;;;;;;;12.10;87.80;;;;;;5054922;28;19944;-74
2021/05/31 05:29:19;;;;;;;;;;;12.30;87.40;;;;;;5055112;28;20188;-75
2021/05/31 05:31:45;;;;;;;;;;;12.50;86.60;;;;;;5052954;28;19962;-73
2021/05/31 05:34:11;;;;;;;;;;;12.70;86.30;;;;;;5053614;28;19921;-74
2021/05/31 05:36:51;;;;;;;;;;;12.90;85.30;;;;;;5070746;28;19961;-73
2021/05/31 05:39:43;;;;;;;;;;;13.10;84.40;;;;;;5052037;28;19917;-74
2021/05/31 05:50:13;;;;;;;;;;;17.50;89.80;;;;;;5053592;28;19967;-71
2021/05/31 05:52:38;;;;;;;;;;;19.10;86.80;;;;;;5068814;28;19921;-71
2021/05/31 05:55:07;;;;;;;;;;;20.30;83.60;;;;;;5067191;28;19986;-71
2021/05/31 05:57:33;;;;;;;;;;;21.30;78.00;;;;;;5068437;28;19966;-71
2021/05/31 06:00:01;;;;;;;;;;;22.20;74.30;;;;;;5071176;28;19916;-71
2021/05/31 06:02:27;;;;;;;;;;;22.90;69.90;;;;;;5070703;28;19921;-72
2021/05/31 06:04:53;;;;;;;;;;;23.40;64.20;;;;;;5070148;28;19970;-72
2021/05/31 06:07:18;;;;;;;;;;;23.70;60.80;;;;;;5069521;28;19916;-71
2021/05/31 06:09:44;;;;;;;;;;;24.10;58.20;;;;;;5070623;28;19920;-72
2021/05/31 06:12:09;;;;;;;;;;;24.60;56.50;;;;;;5070664;28;19929;-71
2021/05/31 06:14:35;;;;;;;;;;;25.00;54.40;;;;;;5069663;28;19917;-72
2021/05/31 06:17:01;;;;;;;;;;;25.40;53.30;;;;;;5070247;28;19966;-71
2021/05/31 06:19:28;;;;;;;;;;;26.10;52.20;;;;;;5070704;28;19920;-71
2021/05/31 06:21:54;;;;;;;;;;;26.80;51.20;;;;;;5064662;28;19927;-72
2021/05/31 06:24:19;;;;;;;;;;;27.40;49.10;;;;;;5073132;28;20015;-72
2021/05/31 06:26:45;;;;;;;;;;;28.10;48.60;;;;;;5073138;28;19931;-72
2021/05/31 06:29:11;;;;;;;;;;;28.90;47.30;;;;;;5074338;28;19917;-71
2021/05/31 06:31:36;;;;;;;;;;;29.60;45.50;;;;;;5073672;28;19920;-71
2021/05/31 06:34:02;;;;;;;;;;;30.20;43.80;;;;;;5071913;28;20014;-72
2021/05/31 06:36:30;;;;;;;;;;;30.70;40.80;;;;;;5074696;28;20004;-71
2021/05/31 06:38:55;;;;;;;;;;;30.70;39.10;;;;;;5074371;28;19924;-72
2021/05/31 06:41:21;;;;;;;;;;;30.90;37.40;;;;;;5067521;28;19921;-72
2021/05/31 06:43:47;;;;;;;;;;;31.10;36.40;;;;;;5073718;28;19916;-72
2021/05/31 06:46:13;;;;;;;;;;;31.10;33.80;;;;;;5072864;28;19927;-71
2021/05/31 06:48:38;;;;;;;;;;;31.10;33.30;;;;;;5070174;28;19924;-73
2021/05/31 06:51:05;;;;;;;;;;;31.50;32.90;;;;;;5073041;28;19920;-70
2021/05/31 06:53:31;;;;;;;;;;;32.00;31.80;;;;;;5073313;28;19920;-71
2021/05/31 06:55:56;;;;;;;;;;;32.50;31.90;;;;;;5074479;28;19970;-71
2021/05/31 06:58:22;;;;;;;;;;;33.10;31.10;;;;;;5074331;28;19970;-72
2021/05/31 07:00:48;;;;;;;;;;;33.80;30.90;;;;;;5073851;28;20309;-70
2021/05/31 07:03:13;;;;;;;;;;;34.40;29.40;;;;;;5073720;28;19923;-70
2021/05/31 07:05:39;;;;;;;;;;;34.70;28.80;;;;;;5072776;28;20090;-71
2021/05/31 07:08:05;;;;;;;;;;;34.90;27.70;;;;;;5073764;28;19970;-71
2021/05/31 07:10:31;;;;;;;;;;;35.00;27.40;;;;;;5074083;28;19963;-72
2021/05/31 07:12:57;;;;;;;;;;;35.50;27.30;;;;;;5073477;28;20347;-71
2021/05/31 07:15:24;;;;;;;;;;;36.10;26.90;;;;;;5072722;28;20342;-71
2021/05/31 07:17:50;;;;;;;;;;;36.60;26.30;;;;;;5072702;28;19948;-70
2021/05/31 07:20:17;;;;;;;;;;;36.70;25.30;;;;;;5073496;28;20355;-71
2021/05/31 07:22:43;;;;;;;;;;;36.60;24.70;;;;;;5074025;28;20621;-72
2021/05/31 07:25:10;;;;;;;;;;;36.70;24.80;;;;;;5072855;28;19964;-72
2021/05/31 07:27:36;;;;;;;;;;;36.90;24.00;;;;;;5073757;28;19917;-73
2021/05/31 07:30:03;;;;;;;;;;;37.10;24.10;;;;;;5073663;28;19917;-71
2021/05/31 07:32:29;;;;;;;;;;;37.70;23.90;;;;;;5073408;28;19916;-71
2021/05/31 07:34:55;;;;;;;;;;;37.90;23.60;;;;;;5072098;28;19924;-73
2021/05/31 07:37:21;;;;;;;;;;;38.10;23.10;;;;;;5073406;28;20013;-71
2021/05/31 07:39:47;;;;;;;;;;;38.30;23.20;;;;;;5072854;28;20399;-70
2021/05/31 07:42:13;;;;;;;;;;;39.00;23.00;;;;;;5073250;28;19917;-73
2021/05/31 07:44:38;;;;;;;;;;;39.80;23.00;;;;;;5072533;28;19920;-70
2021/05/31 07:47:04;;;;;;;;;;;40.50;22.60;;;;;;5073549;28;19960;-72
2021/05/31 07:49:30;;;;;;;;;;;40.70;21.80;;;;;;5071699;28;19931;-71
2021/05/31 07:52:06;;;;;;;;;;;40.90;21.70;;;;;;5073110;28;20006;-71
2021/05/31 07:54:32;;;;;;;;;;;41.20;21.60;;;;;;5072720;28;20383;-71
2021/05/31 07:56:59;;;;;;;;;;;41.50;21.30;;;;;;5072796;28;19917;-71
2021/05/31 07:59:25;;;;;;;;;;;41.70;21.20;;;;;;5071998;28;19913;-72
2021/05/31 08:01:51;;;;;;;;;;;42.00;20.70;;;;;;5072307;28;19930;-71
2021/05/31 08:04:17;;;;;;;;;;;42.00;20.50;;;;;;5071711;28;20008;-72
2021/05/31 08:06:43;;;;;;;;;;;42.00;19.90;;;;;;5073186;28;19916;-72
2021/05/31 08:09:09;;;;;;;;;;;41.70;19.80;;;;;;5073044;28;19961;-71
2021/05/31 08:11:35;;;;;;;;;;;42.10;20.10;;;;;;5072644;28;19939;-71
2021/05/31 08:14:01;;;;;;;;;;;42.70;20.10;;;;;;5071018;28;19920;-72
2021/05/31 08:16:27;;;;;;;;;;;43.40;19.80;;;;;;5072341;28;19940;-72
2021/05/31 08:18:52;;;;;;;;;;;43.60;19.40;;;;;;5072967;28;20376;-70
2021/05/31 08:21:19;;;;;;;;;;;43.80;19.50;;;;;;5072823;28;19916;-71
2021/05/31 08:23:45;;;;;;;;;;;44.30;19.70;;;;;;5071728;28;19924;-71
2021/05/31 08:26:11;;;;;;;;;;;44.70;19.30;;;;;;5072587;28;19925;-72
2021/05/31 08:28:36;;;;;;;;;;;44.90;19.30;;;;;;5072729;28;20296;-71
2021/05/31 08:31:08;;;;;;;;;;;45.30;19.20;;;;;;5072414;28;19939;-71
2021/05/31 08:33:34;;;;;;;;;;;45.50;19.00;;;;;;5070693;28;20416;-71
2021/05/31 08:36:00;;;;;;;;;;;45.60;19.00;;;;;;5072031;28;20022;-71
2021/05/31 08:38:26;;;;;;;;;;;45.30;18.70;;;;;;5054709;28;19923;-71
2021/05/31 08:40:51;;;;;;;;;;;45.20;18.50;;;;;;5072181;28;19923;-71
2021/05/31 08:43:18;;;;;;;;;;;44.40;18.20;;;;;;5071248;28;19916;-72
2021/05/31 08:45:44;;;;;;;;;;;44.20;18.50;;;;;;5070763;28;19920;-72
2021/05/31 08:48:10;;;;;;;;;;;44.20;18.50;;;;;;5071114;28;19916;-71
2021/05/31 08:50:37;;;;;;;;;;;44.60;18.60;;;;;;5095627;22;19924;-67
2021/05/31 08:53:03;;;;;;;;;;;45.20;18.80;;;;;;5071564;28;19913;-67
2021/05/31 08:55:29;;;;;;;;;;;45.30;18.70;;;;;;5071785;28;19916;-67
2021/05/31 08:57:56;;;;;;;;;;;45.50;18.50;;;;;;5072109;28;19916;-68
2021/05/31 09:00:24;;;;;;;;;;;45.90;18.60;;;;;;5070044;28;19916;-66
2021/05/31 09:02:51;;;;;;;;;;;46.20;18.50;;;;;;5070447;28;20003;-69
2021/05/31 09:05:27;;;;;;;;;;;46.60;18.40;;;;;;5071738;28;20448;-69
2021/05/31 09:07:53;;;;;;;;;;;47.10;18.60;;;;;;5070303;28;20067;-67
2021/05/31 09:10:20;;;;;;;;;;;47.60;18.40;;;;;;5071732;28;20077;-67
2021/05/31 09:12:46;;;;;;;;;;;47.80;18.40;;;;;;5071182;28;19952;-67
2021/05/31 09:15:13;;;;;;;;;;;48.30;18.30;;;;;;5070159;28;19916;-68
2021/05/31 09:17:40;;;;;;;;;;;48.20;18.40;;;;;;5070440;28;19967;-66
2021/05/31 09:20:07;;;;;;;;;;;48.70;18.70;;;;;;5071224;28;20268;-66
2021/05/31 09:22:43;;;;;;;;;;;49.20;18.60;;;;;;5071641;28;19959;-67
2021/05/31 09:25:10;;;;;;;;;;;49.60;18.40;;;;;;5070953;28;19956;-67
2021/05/31 09:27:36;;;;;;;;;;;49.30;17.90;;;;;;5071695;28;19956;-68
2021/05/31 09:30:06;;;;;;;;;;;48.70;17.90;;;;;;5071496;28;19959;-67
2021/05/31 09:32:31;;;;;;;;;;;48.70;18.20;;;;;;5071377;28;19916;-67
2021/05/31 09:34:58;;;;;;;;;;;49.00;18.30;;;;;;5070930;28;19958;-66
2021/05/31 09:37:24;;;;;;;;;;;49.40;18.30;;;;;;5071199;28;19917;-66
2021/05/31 09:39:56;;;;;;;;;;;49.60;18.20;;;;;;5070080;28;19985;-66
2021/05/31 09:42:22;;;;;;;;;;;49.70;18.20;;;;;;5071246;28;19986;-65
2021/05/31 09:44:57;;;;;;;;;;;50.00;18.40;;;;;;5069301;28;20311;-66
2021/05/31 09:47:30;;;;;;;;;;;50.30;18.10;;;;;;5071025;28;19999;-65
2021/05/31 09:49:56;;;;;;;;;;;50.30;18.40;;;;;;5071214;28;20399;-66
2021/05/31 09:52:22;;;;;;;;;;;50.70;18.60;;;;;;5069906;28;19946;-66
2021/05/31 09:54:48;;;;;;;;;;;51.00;18.30;;;;;;5070096;28;19916;-66
2021/05/31 09:57:16;;;;;;;;;;;51.30;18.30;;;;;;5071506;28;20295;-66
2021/05/31 09:59:51;;;;;;;;;;;51.40;18.40;;;;;;5074081;28;19920;-67
2021/05/31 10:02:22;;;;;;;;;;;51.70;18.10;;;;;;5075153;28;19995;-67
2021/05/31 10:10:12;;;;;;;;;;;51.90;18.10;;;;;;5065868;28;19924;-66
2021/05/31 10:12:38;;;;;;;;;;;51.20;17.80;;;;;;5075284;28;19942;-66
2021/05/31 10:15:05;;;;;;;;;;;50.30;17.80;;;;;;5074710;28;19916;-66
2021/05/31 10:17:31;;;;;;;;;;;50.10;18.20;;;;;;5075052;28;19919;-66
2021/05/31 10:19:57;;;;;;;;;;;50.30;18.30;;;;;;5075221;28;20461;-66
2021/05/31 10:22:23;;;;;;;;;;;51.00;18.30;;;;;;5074699;28;19916;-66
2021/05/31 10:24:50;;;;;;;;;;;51.10;17.90;;;;;;5074303;28;20008;-66
2021/05/31 10:27:16;;;;;;;;;;;51.30;18.00;;;;;;5073516;28;19917;-67
2021/05/31 10:29:43;;;;;;;;;;;51.30;17.80;;;;;;5056550;28;19938;-67
2021/05/31 10:32:09;;;;;;;;;;;50.90;17.90;;;;;;5073629;28;19916;-66
2021/05/31 10:34:45;;;;;;;;;;;50.90;18.00;;;;;;5073931;28;20003;-65
2021/05/31 10:37:22;;;;;;;;;;;50.30;17.50;;;;;;5075024;28;20069;-66
2021/05/31 10:39:56;;;;;;;;;;;49.10;17.60;;;;;;5073125;28;20273;-65
2021/05/31 10:42:23;;;;;;;;;;;48.70;18.10;;;;;;5072736;28;19916;-68
2021/05/31 10:44:49;;;;;;;;;;;48.50;18.00;;;;;;5071859;28;19963;-68
2021/05/31 10:47:24;;;;;;;;;;;48.50;18.10;;;;;;5073008;28;19959;-68
2021/05/31 10:49:53;;;;;;;;;;;48.60;18.30;;;;;;5072975;28;19920;-66
2021/05/31 10:52:19;;;;;;;;;;;49.10;18.50;;;;;;5074446;28;19923;-67
2021/05/31 10:54:44;;;;;;;;;;;49.40;18.20;;;;;;5074370;28;19917;-67
2021/05/31 10:57:10;;;;;;;;;;;49.70;18.50;;;;;;5073845;28;19917;-66
2021/05/31 10:59:51;;;;;;;;;;;50.00;18.30;;;;;;5074501;28;20350;-67
2021/05/31 11:02:21;;;;;;;;;;;50.20;18.10;;;;;;5072749;28;19916;-67
2021/05/31 11:04:46;;;;;;;;;;;49.60;18.00;;;;;;5073775;28;19920;-68
2021/05/31 11:07:12;;;;;;;;;;;49.70;18.40;;;;;;5074260;28;19935;-65
2021/05/31 11:09:38;;;;;;;;;;;50.10;18.50;;;;;;5073048;28;19920;-65
2021/05/31 11:12:05;;;;;;;;;;;50.30;18.60;;;;;;5073993;28;19959;-66
2021/05/31 11:14:37;;;;;;;;;;;50.70;18.50;;;;;;5073709;28;20345;-65
2021/05/31 11:17:13;;;;;;;;;;;51.10;18.60;;;;;;5074033;28;19916;-66
2021/05/31 11:19:39;;;;;;;;;;;51.10;18.30;;;;;;5073404;28;19924;-65
2021/05/31 11:22:13;;;;;;;;;;;50.90;18.10;;;;;;5073903;28;19974;-65
2021/05/31 11:24:39;;;;;;;;;;;50.50;18.10;;;;;;5072185;28;19967;-65
2021/05/31 11:27:07;;;;;;;;;;;50.10;18.20;;;;;;5073401;28;19912;-65
2021/05/31 11:29:32;;;;;;;;;;;49.10;18.10;;;;;;5073746;28;19917;-64
2021/05/31 11:31:58;;;;;;;;;;;47.30;18.00;;;;;;5073524;28;19916;-64
2021/05/31 11:34:24;;;;;;;;;;;45.30;18.50;;;;;;5073064;28;20019;-64
2021/05/31 11:36:50;;;;;;;;;;;43.70;19.00;;;;;;5073547;28;19920;-65
2021/05/31 11:39:17;;;;;;;;;;;42.50;19.00;;;;;;5072547;28;20442;-67
2021/05/31 11:41:44;;;;;;;;;;;41.10;19.20;;;;;;5073410;28;19924;-67
2021/05/31 11:44:10;;;;;;;;;;;40.10;19.40;;;;;;5072936;28;20324;-66
2021/05/31 11:47:02;;;;;;;;;;;38.80;20.00;;;;;;5072241;28;19920;-66
2021/05/31 11:49:29;;;;;;;;;;;37.90;20.50;;;;;;5069837;28;19928;-66
2021/05/31 11:52:02;;;;;;;;;;;37.10;20.80;;;;;;5073427;28;19995;-65
2021/05/31 11:54:30;;;;;;;;;;;36.80;21.40;;;;;;5072765;28;19916;-65
2021/05/31 11:57:03;;;;;;;;;;;36.20;21.60;;;;;;5073330;28;19916;-66
2021/05/31 11:59:36;;;;;;;;;;;35.40;21.90;;;;;;5072767;28;20273;-66
2021/05/31 12:02:04;;;;;;;;;;;34.70;22.00;;;;;;5072121;28;20020;-66
2021/05/31 12:04:30;;;;;;;;;;;33.70;22.40;;;;;;5072765;28;19921;-66
2021/05/31 12:07:00;;;;;;;;;;;32.90;23.00;;;;;;5072762;28;19917;-66
2021/05/31 12:09:26;;;;;;;;;;;32.40;23.50;;;;;;5071801;28;20288;-66
2021/05/31 12:11:53;;;;;;;;;;;32.00;24.00;;;;;;5071225;28;19956;-65
2021/05/31 12:14:20;;;;;;;;;;;32.00;24.00;;;;;;5072635;28;19916;-66
2021/05/31 12:16:56;;;;;;;;;;;31.90;23.80;;;;;;5072908;28;19924;-65
2021/05/31 12:19:24;;;;;;;;;;;31.60;24.40;;;;;;5072446;28;19916;-65
2021/05/31 12:21:50;;;;;;;;;;;31.00;24.20;;;;;;5070506;28;20387;-65
2021/05/31 12:24:22;;;;;;;;;;;30.40;25.00;;;;;;5071738;28;19917;-65
2021/05/31 12:26:48;;;;;;;;;;;29.70;25.70;;;;;;5072869;28;19939;-65
2021/05/31 12:29:14;;;;;;;;;;;29.20;25.70;;;;;;5072389;28;20408;-67
2021/05/31 12:31:39;;;;;;;;;;;28.90;26.10;;;;;;5072721;28;19923;-67
2021/05/31 12:34:05;;;;;;;;;;;28.60;26.40;;;;;;5072370;28;20334;-67
2021/05/31 12:36:31;;;;;;;;;;;28.20;26.90;;;;;;5072239;28;19917;-68
2021/05/31 12:38:57;;;;;;;;;;;28.00;27.30;;;;;;5072490;28;19912;-68
2021/05/31 12:41:24;;;;;;;;;;;27.60;27.70;;;;;;5072694;28;20011;-66
2021/05/31 12:43:49;;;;;;;;;;;27.50;28.00;;;;;;5071940;28;19920;-66
2021/05/31 12:46:16;;;;;;;;;;;27.70;28.30;;;;;;5072136;28;20432;-67
2021/05/31 12:48:42;;;;;;;;;;;27.90;28.60;;;;;;5079537;28;19974;-66
2021/05/31 12:51:13;;;;;;;;;;;28.00;28.80;;;;;;5091369;28;19924;-67
2021/05/31 12:53:39;;;;;;;;;;;28.00;28.70;;;;;;5090660;28;20451;-67
2021/05/31 12:56:05;;;;;;;;;;;27.90;28.70;;;;;;5087829;28;19948;-65
2021/05/31 12:58:32;;;;;;;;;;;27.80;28.80;;;;;;5091325;28;20364;-65
2021/05/31 13:00:58;;;;;;;;;;;27.50;29.00;;;;;;5089962;28;19916;-63
2021/05/31 13:03:29;;;;;;;;;;;27.30;29.30;;;;;;5089927;28;20299;-65
2021/05/31 13:05:55;;;;;;;;;;;27.10;29.80;;;;;;5071661;28;19920;-66
2021/05/31 13:08:21;;;;;;;;;;;27.00;29.90;;;;;;5073534;28;19916;-66
2021/05/31 13:10:48;;;;;;;;;;;26.80;30.00;;;;;;5091862;28;20010;-66
2021/05/31 13:13:15;;;;;;;;;;;26.60;30.00;;;;;;5091433;28;20083;-66
2021/05/31 13:15:40;;;;;;;;;;;26.40;30.30;;;;;;5092032;28;20003;-65
2021/05/31 13:18:19;;;;;;;;;;;26.20;30.70;;;;;;5090645;28;19951;-65
2021/05/31 13:20:44;;;;;;;;;;;26.20;30.90;;;;;;5089920;28;20292;-64
2021/05/31 13:23:12;;;;;;;;;;;26.20;31.30;;;;;;5071917;28;19916;-66
2021/05/31 13:25:38;;;;;;;;;;;26.10;31.40;;;;;;5091269;28;19920;-67
2021/05/31 13:28:16;;;;;;;;;;;26.10;31.60;;;;;;5091340;28;19916;-67
2021/05/31 13:30:42;;;;;;;;;;;26.10;31.60;;;;;;5090804;28;19942;-65
2021/05/31 13:33:10;;;;;;;;;;;26.00;31.70;;;;;;5090562;28;20411;-66
2021/05/31 13:35:36;;;;;;;;;;;26.00;31.80;;;;;;5091579;28;19916;-66
2021/05/31 13:38:03;;;;;;;;;;;25.90;32.20;;;;;;5090641;28;19946;-66
2021/05/31 13:40:37;;;;;;;;;;;25.90;32.50;;;;;;5091549;28;19923;-66
2021/05/31 13:43:08;;;;;;;;;;;25.90;32.20;;;;;;5091011;28;19920;-67
2021/05/31 13:45:35;;;;;;;;;;;25.80;32.00;;;;;;5091631;28;20300;-65
2021/05/31 13:48:03;;;;;;;;;;;25.60;32.30;;;;;;5089806;28;19995;-66
2021/05/31 13:50:29;;;;;;;;;;;25.70;32.90;;;;;;5090723;28;19943;-66
2021/05/31 13:52:55;;;;;;;;;;;25.60;32.90;;;;;;5089956;28;19923;-65
2021/05/31 13:55:22;;;;;;;;;;;25.60;32.90;;;;;;5089839;28;19916;-65
2021/05/31 13:57:48;;;;;;;;;;;25.60;32.90;;;;;;5090158;28;20003;-64
2021/05/31 14:00:15;;;;;;;;;;;25.40;32.80;;;;;;5091182;28;19919;-64
2021/05/31 14:02:42;;;;;;;;;;;25.30;33.30;;;;;;5091592;28;19931;-65
2021/05/31 14:05:08;;;;;;;;;;;25.20;33.40;;;;;;5091253;28;19920;-66
2021/05/31 14:07:34;;;;;;;;;;;25.10;33.40;;;;;;5089579;28;19925;-64
2021/05/31 14:10:00;;;;;;;;;;;25.10;33.60;;;;;;5091274;28;19998;-61
2021/05/31 14:12:26;;;;;;;;;;;25.10;33.60;;;;;;5091245;28;19916;-62
2021/05/31 14:14:52;;;;;;;;;;;25.10;33.70;;;;;;5090586;28;19916;-62
2021/05/31 14:17:17;;;;;;;;;;;25.10;33.80;;;;;;5091255;28;19919;-62
2021/05/31 14:19:43;;;;;;;;;;;25.10;33.70;;;;;;5090827;28;19923;-63
2021/05/31 14:22:09;;;;;;;;;;;25.00;33.60;;;;;;5090771;28;19912;-62
2021/05/31 14:24:35;;;;;;;;;;;25.10;33.80;;;;;;5090122;28;19927;-63
2021/05/31 14:27:02;;;;;;;;;;;25.10;33.50;;;;;;5090931;28;19916;-63
2021/05/31 14:29:28;;;;;;;;;;;25.00;33.30;;;;;;5089393;28;19916;-65
2021/05/31 14:31:54;;;;;;;;;;;24.90;33.50;;;;;;5090838;28;19916;-63
2021/05/31 14:34:20;;;;;;;;;;;24.90;33.70;;;;;;5090896;28;19995;-63
2021/05/31 14:36:46;;;;;;;;;;;25.00;33.70;;;;;;5090691;28;20034;-62
2021/05/31 14:39:11;;;;;;;;;;;25.00;33.70;;;;;;5090484;28;19916;-63